Time;durP1;ratioP1;P1;durP2;ratioP2;P2;SDS_P1;SDS_P2;PMS_P1;PMS_P2;Temp;Humidity;BMP_temperature;BMP_pressure;BME280_temperature;BME280_humidity;BME280_pressure;Samples;Min_cycle;Max_cycle;Signal;HPM_P1;HPM_P2
2023/04/06 00:00:50;;;;;;;0.00;0.00;;;;;;;8.70;100.00;100279.53;6159144;23;20012;-76
2023/04/06 00:03:16;;;;;;;0.00;0.00;;;;;;;8.70;100.00;100276.78;6182246;23;20057;-77
2023/04/06 00:05:42;;;;;;;0.00;0.00;;;;;;;8.68;100.00;100276.25;6175957;23;20020;-78
2023/04/06 00:08:11;;;;;;;0.00;0.00;;;;;;;8.68;100.00;100277.06;6239191;23;20087;-78
2023/04/06 00:10:36;;;;;;;0.00;0.00;;;;;;;8.67;100.00;100274.59;6185002;23;20066;-79
2023/04/06 00:13:02;;;;;;;0.00;0.00;;;;;;;8.62;100.00;100258.19;6215337;23;20007;-78
2023/04/06 00:15:27;;;;;;;0.00;0.00;;;;;;;8.63;100.00;100252.47;6235473;23;20103;-78
2023/04/06 00:17:53;;;;;;;0.00;0.00;;;;;;;8.66;100.00;100260.16;6164267;23;20015;-79
2023/04/06 00:20:18;;;;;;;0.00;0.00;;;;;;;8.73;100.00;100262.66;6239411;23;20008;-82
2023/04/06 00:22:44;;;;;;;0.00;0.00;;;;;;;8.73;100.00;100268.09;6236259;23;20549;-82
2023/04/06 00:25:10;;;;;;;0.00;0.00;;;;;;;8.66;100.00;100257.41;6188381;23;20023;-80
2023/04/06 00:27:36;;;;;;;0.00;0.00;;;;;;;8.74;100.00;100272.47;6160987;23;20450;-79
2023/04/06 00:30:04;;;;;;;0.00;0.00;;;;;;;8.68;100.00;100248.97;6189955;23;20004;-79
2023/04/06 00:32:30;;;;;;;0.00;0.00;;;;;;;8.72;100.00;100255.56;6209970;23;20734;-79
2023/04/06 00:34:55;;;;;;;0.00;0.00;;;;;;;8.76;100.00;100259.44;6213113;23;20022;-80
2023/04/06 00:37:21;;;;;;;0.00;0.00;;;;;;;8.74;100.00;100248.75;6214164;23;20011;-78
2023/04/06 00:39:46;;;;;;;0.00;0.00;;;;;;;8.80;100.00;100255.09;6184628;23;20299;-78
2023/04/06 00:42:13;;;;;;;0.00;0.00;;;;;;;8.83;100.00;100257.28;6213284;23;20004;-78
2023/04/06 00:44:41;;;;;;;0.00;0.00;;;;;;;8.83;100.00;100246.38;6211061;23;20062;-78
2023/04/06 00:47:07;;;;;;;0.00;0.00;;;;;;;8.85;100.00;100244.25;6213401;23;20012;-78
2023/04/06 00:49:33;;;;;;;0.00;0.00;;;;;;;8.85;100.00;100244.25;6235103;23;20445;-80
2023/04/06 00:51:59;;;;;;;0.00;0.00;;;;;;;8.85;100.00;100233.31;6189917;23;20014;-78
2023/04/06 00:54:25;;;;;;;0.00;0.00;;;;;;;8.89;100.00;100239.91;6239515;23;20031;-81
2023/04/06 00:56:51;;;;;;;0.00;0.00;;;;;;;8.83;100.00;100224.56;6235318;23;20000;-79
2023/04/06 00:59:17;;;;;;;0.00;0.00;;;;;;;8.81;100.00;100221.28;6213409;23;20016;-79
2023/04/06 01:01:42;;;;;;;0.00;0.00;;;;;;;8.82;100.00;100211.19;6186337;23;20748;-80
2023/04/06 01:04:08;;;;;;;0.00;0.00;;;;;;;8.85;100.00;100210.69;6186883;22;20158;-80
2023/04/06 01:06:34;;;;;;;0.00;0.00;;;;;;;8.83;100.00;100207.41;6240387;23;20000;-81
2023/04/06 01:09:00;;;;;;;0.00;0.00;;;;;;;8.86;100.00;100212.31;6209700;23;20698;-82
2023/04/06 01:11:26;;;;;;;0.00;0.00;;;;;;;8.81;100.00;100198.66;6164163;23;20008;-80
2023/04/06 01:13:54;;;;;;;0.00;0.00;;;;;;;8.84;100.00;100198.94;6158617;23;20015;-81
2023/04/06 01:16:20;;;;;;;0.00;0.00;;;;;;;8.95;100.00;100215.41;6213193;23;20004;-80
2023/04/06 01:18:48;;;;;;;0.00;0.00;;;;;;;8.83;100.00;100194.56;6185988;23;20016;-80
2023/04/06 01:21:15;;;;;;;0.00;0.00;;;;;;;8.85;100.00;100195.16;6187732;23;20107;-81
2023/04/06 01:23:49;;;;;;;0.00;0.00;;;;;;;8.78;100.00;100182.84;6213067;23;20034;-79
2023/04/06 01:26:15;;;;;;;;;;;;;;;8.80;100.00;100192.38;6187478;23;20062;-79
2023/04/06 01:28:44;;;;;;;0.00;0.00;;;;;;;8.71;100.00;100180.31;6212980;23;19911;-79
2023/04/06 01:31:10;;;;;;;0.00;0.00;;;;;;;8.69;100.00;100175.13;6209057;23;20070;-78
2023/04/06 01:33:36;;;;;;;0.00;0.00;;;;;;;8.69;100.00;100175.13;6212877;23;20415;-80
2023/04/06 01:36:02;;;;;;;0.00;0.00;;;;;;;8.73;100.00;100175.41;6235889;23;20000;-80
2023/04/06 01:38:27;;;;;;;0.00;0.00;;;;;;;8.72;100.00;100168.31;6187480;23;20012;-80
2023/04/06 01:40:54;;;;;;;0.00;0.00;;;;;;;8.73;100.00;100164.50;6211230;23;20419;-79
2023/04/06 01:43:19;;;;;;;0.00;0.00;;;;;;;8.74;100.00;100168.88;6187412;23;20094;-80
2023/04/06 01:45:44;;;;;;;0.00;0.00;;;;;;;8.77;100.00;100160.19;6188422;23;20024;-79
2023/04/06 01:48:11;;;;;;;0.00;0.00;;;;;;;8.73;100.00;100154.44;6208506;23;20083;-79
2023/04/06 01:50:36;;;;;;;0.00;0.00;;;;;;;8.78;100.00;100156.38;6189779;23;20330;-79
2023/04/06 01:53:02;;;;;;;0.00;0.00;;;;;;;8.78;100.00;100153.66;6186433;23;20080;-79
2023/04/06 01:55:27;;;;;;;0.00;0.00;;;;;;;8.85;100.00;100156.97;6190398;23;20008;-79
2023/04/06 01:57:57;;;;;;;0.00;0.00;;;;;;;8.76;100.00;100142.19;6165447;23;20012;-79
2023/04/06 02:00:26;;;;;;;0.00;0.00;;;;;;;8.84;100.00;100138.97;6214961;23;20008;-79
2023/04/06 02:02:52;;;;;;;0.05;0.05;;;;;;;8.85;100.00;100140.63;6194656;23;20720;-79
2023/04/06 02:05:21;;;;;;;0.00;0.00;;;;;;;8.84;100.00;100138.97;6187985;23;20040;-78
2023/04/06 02:07:56;;;;;;;0.00;0.00;;;;;;;8.85;100.00;100128.91;6214932;23;20502;-79
2023/04/06 02:10:21;;;;;;;;;;;;;;;9.01;100.00;100154.34;6212787;23;20015;-79
2023/04/06 02:12:47;;;;;;;0.00;0.00;;;;;;;8.95;100.00;100133.59;6241880;23;19910;-79
2023/04/06 02:15:13;;;;;;;0.00;0.00;;;;;;;8.96;100.00;100129.78;6164317;23;20004;-78
2023/04/06 02:17:39;;;;;;;0.00;0.00;;;;;;;9.08;100.00;100144.03;6211580;23;20015;-78
2023/04/06 02:20:05;;;;;;;0.00;0.00;;;;;;;9.09;100.00;100135.59;6189855;23;20417;-78
2023/04/06 02:22:33;;;;;;;0.00;0.00;;;;;;;9.17;100.00;100137.00;6210364;23;20427;-78
2023/04/06 02:25:11;;;;;;;0.00;0.00;;;;;;;9.10;100.00;100117.31;6186520;23;20023;-81
2023/04/06 02:27:39;;;;;;;0.00;0.00;;;;;;;9.09;100.00;100112.94;6238085;23;20011;-82
2023/04/06 02:30:05;;;;;;;0.00;0.00;;;;;;;9.18;100.00;100111.34;6189300;23;20422;-80
2023/04/06 02:32:31;;;;;;;0.00;0.00;;;;;;;9.26;100.00;100124.50;6185619;23;20000;-80
2023/04/06 02:34:56;;;;;;;0.00;0.00;;;;;;;9.22;100.00;100115.19;6213301;23;19996;-80
2023/04/06 02:37:23;;;;;;;0.00;0.00;;;;;;;9.12;100.00;100106.97;6188498;23;20157;-81
2023/04/06 02:39:51;;;;;;;0.00;0.00;;;;;;;9.13;100.00;100108.63;6208745;23;20015;-80
2023/04/06 02:42:17;;;;;;;0.00;0.00;;;;;;;9.20;100.00;100111.94;6212696;23;20008;-80
2023/04/06 02:44:47;;;;;;;0.00;0.00;;;;;;;9.16;100.00;100102.63;6161492;23;20334;-81
2023/04/06 02:47:13;;;;;;;0.00;0.00;;;;;;;9.22;100.00;100107.00;6214329;23;20015;-80
2023/04/06 02:49:40;;;;;;;0.00;0.00;;;;;;;9.25;100.00;100106.47;6213937;23;20012;-79
2023/04/06 02:52:06;;;;;;;0.00;0.00;;;;;;;9.23;100.00;100108.66;6215254;23;20031;-79
2023/04/06 02:54:31;;;;;;;0.00;0.00;;;;;;;9.16;100.00;100086.25;6211419;23;20382;-80
2023/04/06 02:56:57;;;;;;;0.00;0.00;;;;;;;9.21;100.00;100093.66;6189637;23;20000;-80
2023/04/06 02:59:22;;;;;;;0.10;0.10;;;;;;;9.31;100.00;100101.88;6214018;23;20003;-79
2023/04/06 03:01:48;;;;;;;0.00;0.00;;;;;;;9.31;100.00;100099.16;6211871;23;20010;-79
2023/04/06 03:04:13;;;;;;;0.00;0.00;;;;;;;9.38;100.00;100102.47;6163654;22;20461;-80
2023/04/06 03:06:39;;;;;;;0.00;0.00;;;;;;;9.39;100.00;100100.56;6210167;23;20122;-80
2023/04/06 03:09:07;;;;;;;0.00;0.00;;;;;;;9.40;100.00;100103.03;6217048;23;20046;-80
2023/04/06 03:11:34;;;;;;;0.00;0.00;;;;;;;9.41;100.00;100098.38;6209891;23;20004;-80
2023/04/06 03:14:02;;;;;;;0.00;0.00;;;;;;;9.44;100.00;100101.38;6166790;23;20459;-81
2023/04/06 03:16:27;;;;;;;0.00;0.00;;;;;;;9.40;100.00;100096.72;6190595;23;20155;-81
2023/04/06 03:19:10;;;;;;;0.00;0.00;;;;;;;9.29;100.00;100078.66;6182346;23;20012;-80
2023/04/06 03:21:36;;;;;;;0.00;0.00;;;;;;;9.24;100.00;100072.13;6191426;23;20450;-80
2023/04/06 03:24:01;;;;;;;0.00;0.00;;;;;;;9.47;100.00;100091.84;6188729;23;20004;-80
2023/04/06 03:26:27;;;;;;;0.00;0.00;;;;;;;9.31;100.00;100069.13;6241109;23;20011;-80
2023/04/06 03:28:52;;;;;;;0.00;0.00;;;;;;;9.43;100.00;100079.81;6210812;23;20550;-79
2023/04/06 03:31:18;;;;;;;0.00;0.00;;;;;;;9.52;100.00;100094.63;6213607;23;20020;-79
2023/04/06 03:33:43;;;;;;;0.00;0.00;;;;;;;9.43;100.00;100080.66;6185999;23;20015;-81
2023/04/06 03:36:08;;;;;;;0.00;0.00;;;;;;;9.44;100.00;100076.00;6163858;23;20087;-79
2023/04/06 03:38:34;;;;;;;0.00;0.00;;;;;;;9.46;100.00;100079.28;6163320;23;20011;-80
2023/04/06 03:41:02;;;;;;;0.00;0.00;;;;;;;9.41;100.00;100076.56;6208714;23;20004;-80
2023/04/06 03:43:27;;;;;;;0.00;0.00;;;;;;;9.38;100.00;100066.16;6223531;23;20099;-81
2023/04/06 03:45:52;;;;;;;0.00;0.00;;;;;;;9.18;100.00;100045.88;6193268;23;20035;-79
2023/04/06 03:48:18;;;;;;;0.00;0.00;;;;;;;9.04;100.00;100042.03;6217861;23;20019;-78
2023/04/06 03:50:43;;;;;;;0.00;0.00;;;;;;;9.00;100.00;100051.81;6191077;23;20004;-78
2023/04/06 03:53:11;;;;;;;0.00;0.00;;;;;;;9.02;100.00;100058.66;6193166;23;20011;-79
2023/04/06 03:55:36;;;;;;;0.00;0.00;;;;;;;9.01;100.00;100050.69;6219274;23;20144;-79
2023/04/06 03:58:02;;;;;;;0.00;0.00;;;;;;;9.00;100.00;100057.28;6215543;23;20004;-79
2023/04/06 04:00:27;;;;;;;0.00;0.00;;;;;;;8.92;100.00;100055.84;6193505;23;20008;-79
2023/04/06 04:02:53;;;;;;;0.00;0.00;;;;;;;8.90;100.00;100045.19;6210940;23;20618;-78
2023/04/06 04:05:18;;;;;;;0.00;0.00;;;;;;;8.89;100.00;100046.31;6187899;23;20027;-79
2023/04/06 04:07:44;;;;;;;0.00;0.00;;;;;;;8.84;100.00;100035.34;6159297;23;20488;-79
2023/04/06 04:10:10;;;;;;;0.00;0.00;;;;;;;8.70;100.00;100012.38;6213666;23;20014;-78
2023/04/06 04:12:36;;;;;;;0.00;0.00;;;;;;;8.67;100.00;100023.78;6214056;23;20032;-79
2023/04/06 04:15:02;;;;;;;0.00;0.00;;;;;;;8.58;100.00;100030.84;6184014;23;20008;-77
2023/04/06 04:17:28;;;;;;;0.00;0.00;;;;;;;8.43;100.00;100029.59;6213483;23;20728;-79
2023/04/06 04:19:53;;;;;;;0.00;0.00;;;;;;;8.46;100.00;100042.75;6185192;23;20004;-78
2023/04/06 04:22:19;;;;;;;0.00;0.00;;;;;;;8.38;100.00;100035.00;6188546;23;20038;-77
2023/04/06 04:24:44;;;;;;;0.00;0.00;;;;;;;8.39;100.00;100036.66;6208551;23;20038;-78
2023/04/06 04:27:10;;;;;;;0.00;0.00;;;;;;;8.43;100.00;100040.50;6213382;23;20058;-77
2023/04/06 04:29:35;;;;;;;0.00;0.00;;;;;;;8.50;100.00;100041.13;6214496;23;20019;-78
2023/04/06 04:32:01;;;;;;;0.00;0.00;;;;;;;8.59;100.00;100057.81;6159433;23;20015;-78
2023/04/06 04:34:26;;;;;;;0.00;0.00;;;;;;;8.60;100.00;100064.94;6163635;23;20021;-79
2023/04/06 04:36:52;;;;;;;0.00;0.00;;;;;;;8.63;100.00;100060.84;6184655;23;20004;-79
2023/04/06 04:39:17;;;;;;;0.00;0.00;;;;;;;8.59;100.00;100054.28;6239423;23;20014;-79
2023/04/06 04:41:43;;;;;;;0.00;0.00;;;;;;;8.61;100.00;100063.00;6161409;23;20366;-79
2023/04/06 04:44:08;;;;;;;0.00;0.00;;;;;;;8.54;100.00;100050.44;6212802;23;20494;-79
2023/04/06 04:46:41;;;;;;;0.00;0.00;;;;;;;8.56;100.00;100067.34;6165108;23;20091;-79
2023/04/06 04:49:06;;;;;;;0.00;0.00;;;;;;;8.43;100.00;100056.84;6209231;23;20000;-78
2023/04/06 04:51:34;;;;;;;0.00;0.00;;;;;;;8.32;100.00;100044.22;6212270;23;20069;-79
2023/04/06 04:54:40;;;;;;;0.00;0.00;;;;;;;8.44;100.00;100066.72;6248183;23;20019;-75
2023/04/06 04:57:06;;;;;;;0.00;0.00;;;;;;;8.39;100.00;100062.00;6225565;23;20253;-77
2023/04/06 04:59:32;;;;;;;0.00;0.00;;;;;;;8.26;100.00;100048.81;6236012;23;20074;-76
2023/04/06 05:01:57;;;;;;;0.00;0.00;;;;;;;8.33;100.00;100052.13;6187982;23;20497;-76
2023/04/06 05:04:23;;;;;;;0.00;0.00;;;;;;;8.34;100.00;100053.78;6183820;22;20074;-75
2023/04/06 05:06:49;;;;;;;0.00;0.00;;;;;;;8.33;100.00;100051.34;6213744;23;20012;-75
2023/04/06 05:09:14;;;;;;;0.00;0.00;;;;;;;8.29;100.00;100047.47;6213329;23;20423;-74
2023/04/06 05:11:40;;;;;;;0.00;0.00;;;;;;;8.27;100.00;100050.47;6159380;23;20012;-75
2023/04/06 05:14:06;;;;;;;0.00;0.00;;;;;;;8.31;100.00;100059.75;6188028;23;20031;-74
2023/04/06 05:16:35;;;;;;;0.00;0.00;;;;;;;8.28;100.00;100051.28;6183399;23;20042;-75
2023/04/06 05:19:00;;;;;;;0.00;0.00;;;;;;;8.33;100.00;100051.34;6213105;23;20004;-75
2023/04/06 05:21:26;;;;;;;0.00;0.00;;;;;;;8.30;100.00;100038.22;6158124;23;20054;-74
2023/04/06 05:23:51;;;;;;;0.00;0.00;;;;;;;8.21;100.00;100030.53;6214326;23;20035;-75
2023/04/06 05:26:17;;;;;;;0.00;0.00;;;;;;;8.21;100.00;100046.06;6161297;23;20004;-76
2023/04/06 05:28:44;;;;;;;0.00;0.00;;;;;;;8.05;100.00;100034.22;6208255;23;20004;-76
2023/04/06 05:31:12;;;;;;;0.00;0.00;;;;;;;7.99;100.00;100040.69;6163273;23;20004;-76
2023/04/06 05:33:37;;;;;;;0.00;0.00;;;;;;;7.94;100.00;100049.63;6185383;23;20012;-76
2023/04/06 05:36:05;;;;;;;0.00;0.00;;;;;;;7.73;100.00;100045.06;6187834;23;20011;-76
2023/04/06 05:38:30;;;;;;;0.00;0.00;;;;;;;7.61;100.00;100042.50;6235932;23;20780;-76
2023/04/06 05:40:56;;;;;;;0.00;0.00;;;;;;;7.62;100.00;100046.84;6213449;23;20035;-75
2023/04/06 05:43:21;;;;;;;0.00;0.00;;;;;;;7.64;100.00;100040.06;6209819;23;20005;-76
2023/04/06 05:45:49;;;;;;;0.00;0.00;;;;;;;7.68;100.00;100033.03;6211988;23;20015;-75
2023/04/06 05:48:35;;;;;;;0.00;0.00;;;;;;;7.61;100.00;100037.06;6212624;23;20032;-77
2023/04/06 05:51:00;;;;;;;0.00;0.00;;;;;;;7.61;100.00;100062.34;6215036;23;20012;-76
2023/04/06 05:53:26;;;;;;;0.00;0.00;;;;;;;7.63;100.00;100059.38;6162228;23;20065;-77
2023/04/06 05:55:51;;;;;;;0.00;0.00;;;;;;;7.72;100.00;100066.00;6159292;23;20000;-76
2023/04/06 05:58:17;;;;;;;0.00;0.00;;;;;;;7.82;100.00;100057.13;6213494;23;20004;-77
2023/04/06 06:00:43;;;;;;;0.00;0.00;;;;;;;8.02;100.00;100073.66;6212564;23;20008;-77
2023/04/06 06:03:11;;;;;;;0.00;0.00;;;;;;;8.05;100.00;100056.00;6209024;23;20083;-77
2023/04/06 06:05:37;;;;;;;0.00;0.00;;;;;;;8.17;100.00;100078.44;6212866;23;20021;-75
2023/04/06 06:08:02;;;;;;;0.00;0.00;;;;;;;8.31;100.00;100080.72;6233273;23;20766;-74
2023/04/06 06:10:28;;;;;;;0.00;0.00;;;;;;;8.39;100.00;100082.97;6162925;23;20427;-74
2023/04/06 06:12:53;;;;;;;0.00;0.00;;;;;;;8.46;100.00;100077.34;6208453;23;20109;-74
2023/04/06 06:15:19;;;;;;;0.00;0.00;;;;;;;8.55;100.00;100082.03;6187173;23;20011;-74
2023/04/06 06:17:44;;;;;;;0.00;0.00;;;;;;;8.61;100.00;100091.09;6212250;23;20419;-75
2023/04/06 06:20:10;;;;;;;0.00;0.00;;;;;;;8.56;100.00;100070.06;6207499;23;20585;-74
2023/04/06 06:22:36;;;;;;;0.00;0.00;;;;;;;8.63;100.00;100085.38;6212157;23;20032;-74
2023/04/06 06:25:02;;;;;;;0.00;0.00;;;;;;;8.68;100.00;100085.41;6183724;23;20612;-74
2023/04/06 06:27:28;;;;;;;0.00;0.00;;;;;;;8.73;100.00;100093.63;6239184;23;20004;-74
2023/04/06 06:29:53;;;;;;;0.00;0.00;;;;;;;8.78;100.00;100101.03;6157812;23;20312;-73
2023/04/06 06:32:19;;;;;;;0.00;0.00;;;;;;;8.77;100.00;100097.47;6212170;23;20008;-73
2023/04/06 06:34:44;;;;;;;0.00;0.00;;;;;;;8.81;100.00;100106.78;6186493;23;20008;-73
2023/04/06 06:37:10;;;;;;;0.00;0.00;;;;;;;8.84;100.00;100095.34;6184447;23;20001;-74
2023/04/06 06:39:35;;;;;;;0.00;0.00;;;;;;;8.84;100.00;100108.16;6215223;23;20021;-73
2023/04/06 06:42:01;;;;;;;0.00;0.00;;;;;;;8.84;100.00;100102.72;6209079;23;20008;-74
2023/04/06 06:44:27;;;;;;;0.00;0.00;;;;;;;8.87;100.00;100103.00;6188460;23;20102;-74
2023/04/06 06:46:52;;;;;;;0.00;0.00;;;;;;;8.88;100.00;100091.00;6185008;23;20008;-73
2023/04/06 06:49:20;;;;;;;0.00;0.00;;;;;;;8.90;100.00;100097.00;6214334;23;20015;-80
2023/04/06 06:51:46;;;;;;;0.00;0.00;;;;;;;8.94;100.00;100093.78;6213241;23;20015;-79
2023/04/06 06:54:12;;;;;;;0.00;0.00;;;;;;;9.21;100.00;100105.41;6186288;23;20047;-77
2023/04/06 06:56:38;;;;;;;0.00;0.00;;;;;;;9.48;100.00;100120.81;6241336;23;20003;-78
2023/04/06 06:59:12;;;;;;;0.00;0.00;;;;;;;9.52;99.93;100107.44;6214634;23;20035;-79
2023/04/06 07:01:37;;;;;;;0.00;0.00;;;;;;;9.61;98.43;100109.38;6213672;23;20038;-79
2023/04/06 07:04:09;;;;;;;0.00;0.00;;;;;;;9.71;97.17;100110.50;6216778;22;20016;-83
2023/04/06 07:07:01;;;;;;;0.00;0.00;;;;;;;9.64;95.94;100082.63;6211487;23;20011;-87
2023/04/06 07:09:35;;;;;;;0.00;0.00;;;;;;;9.67;96.24;100112.97;6222032;23;20026;-80
2023/04/06 07:12:01;;;;;;;0.00;0.00;;;;;;;9.52;97.39;100100.06;6187657;23;20008;-79
2023/04/06 07:22:06;;;;;;;;;;;;;;;;;;;;;
2023/04/06 07:32:38;;;;;;;;;;;;;;;;;;;;;
2023/04/06 07:35:52;;;;;;;;;;;;;;;;;;;;;
2023/04/06 07:42:39;;;;;;;;;;;;;;;;;;;;;
2023/04/06 07:49:06;;;;;;;;;;;;;;;;;;;;;
2023/04/06 07:52:25;;;;;;;;;;;;;;;;;;;;;
2023/04/06 07:59:07;;;;;;;0.00;0.00;;;;;;;10.34;89.75;100110.41;5890545;24;20454;-81
2023/04/06 08:02:46;;;;;;;;;;;;;;;;;;;;;
2023/04/06 08:53:24;;;;;;;0.00;0.00;;;;;;;19.75;46.50;100201.75;6216957;23;20016;-85
2023/04/06 08:56:15;;;;;;;0.00;0.00;;;;;;;18.44;48.22;100203.59;6181739;23;20005;-82
2023/04/06 09:03:34;;;;;;;;;;;;;;;;;;;;;
2023/04/06 09:07:06;;;;;;;;;;;;;;;;;;;;;
2023/04/06 09:09:12;;;;;;;;;;;;;;;19.67;44.66;100203.41;6019841;23;20007;-81
2023/04/06 09:14:41;;;;;;;0.00;0.00;;;;;;;22.04;40.35;100186.25;5992544;23;20318;-81
2023/04/06 09:17:29;;;;;;;0.00;0.00;;;;;;;22.14;39.02;100199.69;6015876;23;20034;-81
2023/04/06 09:26:23;;;;;;;0.00;0.00;;;;;;;25.68;32.77;100219.47;5915364;24;20056;-83
2023/04/06 09:29:03;;;;;;;0.00;0.00;;;;;;;22.55;35.82;100173.88;5923895;24;20013;-82
2023/04/06 09:31:37;;;;;;;0.00;0.00;;;;;;;23.58;35.27;100182.66;5923107;23;20461;-83
2023/04/06 09:34:34;;;;;;;;;;;;;;;;;;;;;
2023/04/06 09:43:58;;;;;;;0.00;0.00;;;;;;;27.50;29.22;100195.06;6174335;23;20011;-83
2023/04/06 09:47:18;;;;;;;;;;;;;;;;;;;;;
2023/04/06 09:53:31;;;;;;;0.00;0.00;;;;;;;20.27;41.50;100190.38;6090497;23;20101;-85
2023/04/06 09:56:45;;;;;;;0.00;0.00;;;;;;;19.85;40.53;100220.81;6067737;23;20081;-86
2023/04/06 09:59:33;;;;;;;0.00;0.00;;;;;;;17.93;44.73;100194.88;6065972;23;20010;-82
2023/04/06 10:02:45;;;;;;;0.00;0.00;;;;;;;16.32;47.68;100192.84;6035704;23;20011;-84
2023/04/06 10:06:04;;;;;;;;;;;;;;;;;;;;;
2023/04/06 10:16:05;;;;;;;0.00;0.00;;;;;;;16.22;53.05;100216.81;5894113;24;20024;-86
2023/04/06 10:19:22;;;;;;;;;;;;;;;;;;;;;
2023/04/06 10:22:53;;;;;;;;;;;;;;;;;;;;;
2023/04/06 10:36:57;;;;;;;0.00;0.00;;;;;;;14.00;53.36;100210.56;6062955;23;20754;-84
2023/04/06 10:43:44;;;;;;;0.00;0.00;;;;;;;13.05;58.17;100186.31;5987928;23;20118;-88
2023/04/06 10:50:19;;;;;;;0.00;0.00;;;;;;;15.11;55.67;100200.19;5929866;24;20051;-86
2023/04/06 10:53:17;;;;;;;0.00;0.00;;;;;;;14.99;54.68;100221.84;5891604;24;20025;-85
2023/04/06 10:59:45;;;;;;;;;;;;;;;;;;;;;
2023/04/06 11:03:02;;;;;;;;;;;;;;;;;;;;;
2023/04/06 11:05:28;;;;;;;0.00;0.00;;;;;;;17.17;48.97;100217.09;5919581;23;20084;-86
2023/04/06 11:12:46;;;;;;;;;;;;;;;;;;;;;
2023/04/06 11:15:55;;;;;;;;;;;;;;;;;;;;;
2023/04/06 11:18:48;;;;;;;;;;;;;;;;;;;;;
2023/04/06 13:09:49;;;;;;;0.00;0.00;;;;;;;21.05;38.70;100222.25;6305047;22;20689;-84
2023/04/06 13:13:03;;;;;;;0.00;0.00;;;;;;;20.90;35.61;100222.91;6312007;22;20017;-84
2023/04/06 13:15:53;;;;;;;0.00;0.00;;;;;;;19.20;39.39;100254.09;6338333;22;20530;-83
2023/04/06 13:19:01;;;;;;;0.00;0.00;;;;;;;21.41;37.30;100211.59;6337760;22;20071;-85
2023/04/06 13:38:49;;;;;;;0.00;0.00;;;;;;;28.71;23.12;100258.19;6091741;23;20017;-84
2023/04/06 14:05:31;;;;;;;0.00;0.00;;;;;;;33.70;18.50;100283.59;6193787;23;20525;-87
2023/04/06 14:07:59;;;;;;;0.00;0.00;;;;;;;33.78;17.90;100275.78;6164315;23;20000;-85
2023/04/06 14:10:36;;;;;;;0.00;0.00;;;;;;;30.02;20.99;100246.03;6214186;23;20121;-87
2023/04/06 14:13:22;;;;;;;0.00;0.00;;;;;;;30.26;22.37;100275.41;6226716;22;20000;-87
2023/04/06 14:16:18;;;;;;;;;;;;;;;;;;;;;
2023/04/06 14:18:44;;;;;;;0.00;0.00;;;;;;;30.85;20.60;100264.81;6369786;22;20074;-85
2023/04/06 14:21:16;;;;;;;0.00;0.00;;;;;;;28.75;21.23;100249.75;6341124;22;19998;-86
2023/04/06 14:23:47;;;;;;;0.00;0.00;;;;;;;27.56;23.72;100236.84;6339360;22;20013;-87
2023/04/06 14:26:23;;;;;;;0.00;0.00;;;;;;;30.21;21.74;100289.09;6341814;22;20021;-85
2023/04/06 16:34:17;;;;;;;;;;;;;;;;;;;;;
2023/04/06 16:36:58;;;;;;;;;;;;;;;;;;;;;
2023/04/06 16:40:17;;;;;;;;;;;;;;;;;;;;;
2023/04/06 16:49:51;;;;;;;0.00;0.00;;;;;;;15.14;46.32;100326.25;6226929;22;20030;-84
2023/04/06 16:52:16;;;;;;;0.00;0.00;;;;;;;15.22;45.15;100322.00;6308248;22;20025;-85
2023/04/06 16:54:44;;;;;;;0.00;0.00;;;;;;;14.75;46.05;100318.31;6281459;22;20349;-85
2023/04/06 16:57:10;;;;;;;0.00;0.00;;;;;;;14.49;47.25;100348.88;6284733;22;20014;-85
2023/04/06 16:59:44;;;;;;;0.00;0.00;;;;;;;13.84;51.83;100346.56;6252939;22;20003;-82
2023/04/06 17:02:20;;;;;;;;;;;;;;;;;;;;;
2023/04/06 17:04:53;;;;;;;0.00;0.00;;;;;;;12.48;57.45;100372.41;6305246;22;20082;-79
2023/04/06 17:07:29;;;;;;;;;;;;;;;;;;;;;
2023/04/06 17:09:54;;;;;;;0.00;0.00;;;;;;;10.94;65.29;100337.72;6305731;22;20341;-80
2023/04/06 17:12:20;;;;;;;0.00;0.00;;;;;;;10.34;67.32;100344.63;6256607;22;20022;-79
2023/04/06 17:14:45;;;;;;;0.00;0.00;;;;;;;9.84;71.11;100353.09;6311318;22;20010;-83
2023/04/06 17:17:16;;;;;;;0.00;0.00;;;;;;;9.71;74.07;100348.06;6292925;22;20034;-86
2023/04/06 17:19:44;;;;;;;0.10;0.10;;;;;;;10.15;73.84;100369.66;6316042;22;19999;-83
2023/04/06 17:22:19;;;;;;;0.00;0.00;;;;;;;10.84;72.79;100400.63;6311403;22;20002;-88
2023/04/06 17:24:54;;;;;;;0.00;0.00;;;;;;;11.22;72.47;100390.31;6339829;22;20003;-87
2023/04/06 17:27:25;;;;;;;0.00;0.00;;;;;;;11.48;71.56;100406.78;6302188;22;20007;-80
2023/04/06 17:30:05;;;;;;;0.00;0.00;;;;;;;11.55;71.52;100396.41;6310641;22;20002;-83
2023/04/06 17:32:50;;;;;;;0.00;0.00;;;;;;;11.70;71.60;100415.56;6287123;22;20003;-81
2023/04/06 17:35:16;;;;;;;0.00;0.00;;;;;;;11.85;71.49;100408.44;6303471;22;20042;-81
2023/04/06 17:37:44;;;;;;;0.00;0.00;;;;;;;11.92;71.54;100408.16;6282032;22;20333;-79
2023/04/06 17:40:09;;;;;;;0.00;0.00;;;;;;;11.79;71.66;100384.88;6285167;22;20015;-80
2023/04/06 17:42:35;;;;;;;0.00;0.00;;;;;;;11.83;70.97;100402.41;6260578;22;20087;-83
2023/04/06 17:45:01;;;;;;;0.00;0.00;;;;;;;11.91;70.99;100431.97;6304651;22;20007;-80
2023/04/06 17:47:33;;;;;;;0.00;0.00;;;;;;;11.72;70.57;100428.97;6301579;22;19999;-79
2023/04/06 17:50:04;;;;;;;0.00;0.00;;;;;;;11.65;70.50;100458.56;6279925;22;20014;-80
2023/04/06 17:52:35;;;;;;;0.00;0.00;;;;;;;11.26;70.28;100443.44;6300462;22;20003;-80
2023/04/06 17:55:20;;;;;;;;;;;;;;;;;;;;;
2023/04/06 17:58:08;;;;;;;0.00;0.00;;;;;;;10.55;72.06;100439.31;6303374;22;20118;-84
2023/04/06 18:00:50;;;;;;;;;;;;;;;;;;;;;
2023/04/06 18:03:26;;;;;;;0.00;0.00;;;;;;;10.63;73.02;100441.56;6306088;22;20067;-80
2023/04/06 18:06:09;;;;;;;0.00;0.00;;;;;;;11.35;71.88;100458.22;6304692;22;20508;-79
2023/04/06 18:08:46;;;;;;;0.00;0.00;;;;;;;11.66;70.97;100432.81;6277197;22;20007;-80
2023/04/06 18:11:20;;;;;;;0.00;0.00;;;;;;;12.12;70.20;100459.41;6299463;22;20003;-80
2023/04/06 18:13:46;;;;;;;0.00;0.00;;;;;;;12.07;69.59;100462.16;6270702;22;20007;-79
2023/04/06 18:16:12;;;;;;;0.00;0.00;;;;;;;12.22;69.39;100442.94;6299116;22;20004;-79
2023/04/06 18:18:46;;;;;;;0.00;0.00;;;;;;;12.22;68.95;100459.41;6297873;22;20010;-79
2023/04/06 18:21:22;;;;;;;0.00;0.00;;;;;;;11.87;69.21;100463.75;6301297;22;20109;-79
2023/04/06 18:24:04;;;;;;;0.00;0.00;;;;;;;11.48;69.42;100461.56;6300669;22;20488;-79
2023/04/06 18:26:47;;;;;;;0.00;0.00;;;;;;;11.21;70.39;100445.34;6295511;22;20074;-77
2023/04/06 18:29:13;;;;;;;0.00;0.00;;;;;;;10.96;70.87;100455.09;6296603;22;20003;-77
2023/04/06 18:31:38;;;;;;;0.00;0.00;;;;;;;10.71;71.67;100464.03;6269872;22;20003;-76
2023/04/06 18:34:04;;;;;;;0.00;0.00;;;;;;;10.39;72.94;100462.22;6268319;22;20023;-85
2023/04/06 18:36:32;;;;;;;0.00;0.00;;;;;;;10.23;73.28;100470.25;6271387;22;20312;-83
2023/04/06 18:38:57;;;;;;;0.00;0.00;;;;;;;10.10;73.68;100481.66;6267783;22;20011;-80
2023/04/06 18:41:29;;;;;;;0.00;0.00;;;;;;;9.91;73.97;100462.91;6268868;22;20050;-80
2023/04/06 18:43:54;;;;;;;0.00;0.00;;;;;;;9.86;74.34;100465.63;6221593;22;20031;-78
2023/04/06 18:46:25;;;;;;;0.00;0.00;;;;;;;9.82;74.39;100477.31;6270116;22;20414;-80
2023/04/06 18:48:50;;;;;;;0.00;0.00;;;;;;;9.92;74.96;100502.81;6216877;22;20086;-81
2023/04/06 18:51:20;;;;;;;0.00;0.00;;;;;;;9.93;74.94;100496.28;6271412;22;20087;-83
2023/04/06 18:53:49;;;;;;;0.00;0.00;;;;;;;9.95;75.06;100496.81;6246112;22;20016;-86
2023/04/06 18:56:23;;;;;;;0.00;0.00;;;;;;;9.89;75.14;100495.13;6246367;22;20035;-82
2023/04/06 18:58:49;;;;;;;0.00;0.00;;;;;;;9.98;75.53;100505.59;6243961;22;20018;-80
2023/04/06 20:29:27;;;;;;;;;;;;;;;;;;;;;
2023/04/06 20:36:05;;;;;;;0.00;0.00;;;;;;;7.14;87.00;100591.28;5946021;24;20447;-79
2023/04/06 20:43:04;;;;;;;0.00;0.00;;;;;;;7.34;86.60;100628.97;5864575;24;20017;-79
2023/04/06 20:45:58;;;;;;;0.00;0.00;;;;;;;7.15;85.94;100603.81;5841912;24;20013;-78
2023/04/06 20:49:36;;;;;;;0.00;0.00;;;;;;;7.24;86.71;100630.63;5899337;24;20048;-78
2023/04/06 20:59:43;;;;;;;;;;;;;;;;;;;;;
2023/04/06 21:02:50;;;;;;;0.00;0.00;;;;;;;7.07;87.36;100634.09;5896834;24;20365;-78
2023/04/06 21:06:22;;;;;;;;;;;;;;;;;;;;;
2023/04/06 21:17:15;;;;;;;;;;;;;;;;;;;;;
2023/04/06 21:30:25;;;;;;;0.00;0.00;;;;;;;6.06;92.29;100651.19;5927588;24;20031;-77
2023/04/06 21:34:13;;;;;;;0.00;0.00;;;;;;;6.03;92.92;100650.81;5999573;23;20027;-76